Latest Weather Observations for Launceston Airport

IDT60801

Issued at 9:32 am EDT Thursday 30 March 2017 (issued every 30 minutes, with the page automatically refreshed every 10 minutes)

About weather observations | Map of weather stations | Latest weather observations for TAS | Other Formats
Station Details ID: 091311 Name: LAUNCESTON AIRPORT Lat: -41.55 Lon: 147.21 Height: 166.9 m
Data from the previous 72 hours. | See also: Recent months at Launceston Airport
Date/Time
EDT
Temp
°C
App
Temp
°C
Dew
Point
°C
Rel
Hum
%
Delta-T
°C
Wind Press
QNH
hPa
Press
MSL
hPa
Rain since
9am
mm
Dir  Spd
km/h
Gust
km/h
Spd
kts
Gust
kts
30/09:00am 10.8 8.0 5.1 68 2.6 NNE 9 15 5 8 1011.5 1011.3 1.2
30/08:30am 8.9 6.2 5.6 80 1.5 N 9 13 5 7 1010.9 1010.7 1.2
30/08:00am 6.0 2.1 3.5 84 1.1 NNW 13 17 7 9 1010.7 1010.5 1.2
30/07:30am 6.0 2.4 3.0 81 1.3 NNW 11 15 6 8 1010.2 1010.0 1.2
30/07:00am 7.1 2.9 3.9 80 1.4 NNW 15 19 8 10 1009.8 1009.5 1.2
30/06:30am 7.9 3.8 4.5 79 1.5 NNW 15 19 8 10 1009.2 1008.9 1.2
30/06:00am 8.4 4.0 4.8 78 1.6 NNW 17 20 9 11 1008.7 1008.4 1.2
30/05:30am 8.8 6.3 4.8 76 1.8 N 7 13 4 7 1008.5 1008.2 1.2
30/05:00am 8.5 4.8 4.7 77 1.7 NNW 13 17 7 9 1007.8 1007.5 1.0
30/04:30am 8.8 4.8 4.8 76 1.8 NNW 15 17 8 9 1007.5 1007.2 1.0
30/04:00am 9.2 5.5 4.4 72 2.1 NNW 13 17 7 9 1007.6 1007.3 1.0
30/03:30am 9.5 5.1 4.7 72 2.2 NNW 17 20 9 11 1007.8 1007.5 1.0
30/03:00am 10.0 5.2 4.4 68 2.5 NW 19 24 10 13 1007.9 1007.6 1.0
30/02:30am 10.6 6.5 4.1 64 2.9 WNW 15 20 8 11 1007.3 1007.0 1.0
30/02:00am 10.4 6.3 4.1 65 2.8 NNW 15 22 8 12 1007.3 1007.0 1.0
30/01:30am 10.6 6.2 4.9 68 2.6 NNW 17 22 9 12 1007.3 1007.0 1.0
30/01:00am 10.4 5.7 5.0 69 2.5 NNW 19 24 10 13 1007.0 1006.7 1.0
30/12:30am 10.5 6.2 5.1 69 2.5 NNW 17 20 9 11 1006.8 1006.5 1.0
30/12:00am 10.7 6.9 5.7 71 2.3 NNW 15 20 8 11 1006.1 1005.8 1.0
 
Date/Time
EDT
Temp
°C
App
Temp
°C
Dew
Point
°C
Rel
Hum
%
Delta-T
°C
Wind Press
QNH
hPa
Press
MSL
hPa
Rain since
9am
mm
Dir  Spd
km/h
Gust
km/h
Spd
kts
Gust
kts
29/11:30pm 10.6 6.2 6.6 76 1.9 NNW 19 22 10 12 1006.1 1005.8 1.0
29/11:00pm 10.3 7.0 8.2 87 1.0 N 15 17 8 9 1005.4 1005.2 1.0
29/10:30pm 10.5 6.8 7.9 84 1.3 NE 17 24 9 13 1005.0 1004.8 1.0
29/10:00pm 10.8 7.8 7.7 81 1.5 ENE 13 17 7 9 1005.4 1005.2 1.0
29/09:30pm 12.0 10.7 5.9 66 2.9 E 2 7 1 4 1005.1 1004.9 1.0
29/09:00pm 12.5 8.3 5.9 64 3.1 SW 17 20 9 11 1004.6 1004.3 1.0
29/08:30pm 12.9 8.7 7.4 69 2.7 SW 19 26 10 14 1003.5 1003.2 1.0
29/08:00pm 14.9 11.6 11.5 80 1.8 WNW 20 32 11 17 1002.6 1002.3 1.0
29/07:30pm 16.2 10.1 11.8 75 2.4 NNW 35 48 19 26 1001.4 1001.1 1.0
29/07:00pm 16.2 9.7 11.8 75 2.4 NNW 37 57 20 31 1001.2 1000.9 1.0
29/06:31pm 16.4 9.2 11.8 74 2.5 N 41 63 22 34 1000.6 1000.3 1.0
29/06:30pm 16.4 9.2 11.8 74 2.5 NNW 41 57 22 31 1000.6 1000.3 1.0
29/06:02pm 16.2 9.3 11.6 74 2.5 NNW 39 59 21 32 1000.6 1000.3 1.0
29/06:00pm 16.3 9.5 11.9 75 2.4 NNW 39 48 21 26 1000.6 1000.3 1.0
29/05:30pm 16.3 8.9 12.3 77 2.2 NNW 43 61 23 33 1000.4 1000.1 1.0
29/05:16pm 16.6 9.3 12.8 78 2.1 NNW 43 61 23 33 1000.3 1000.0 1.0
29/05:13pm 16.6 9.7 12.8 78 2.1 NNW 41 61 22 33 1000.3 1000.0 1.0
29/05:06pm 16.3 10.3 13.4 83 1.6 NNW 37 52 20 28 1000.4 1000.1 1.0
29/05:00pm 15.9 10.7 13.4 85 1.4 NNW 33 52 18 28 1000.4 1000.1 1.0
29/04:50pm 15.3 11.0 13.2 87 1.2 NNW 28 37 15 20 1000.7 1000.4 0.8
29/04:30pm 15.4 9.8 13.4 88 1.1 NNW 35 50 19 27 1000.6 1000.3 0.4
29/04:13pm 15.6 9.0 12.7 83 1.6 NNW 39 50 21 27 1000.6 1000.3 0.2
29/04:00pm 15.9 9.3 13.6 86 1.3 NNW 41 54 22 29 1000.7 1000.4 0.2
29/03:41pm 15.7 8.5 13.2 85 1.4 NNW 43 63 23 34 1000.5 1000.2 0.2
29/03:40pm 15.9 8.7 13.2 84 1.5 NNW 43 59 23 32 1000.6 1000.3 0.0
29/03:38pm 16.3 9.5 13.2 82 1.7 NNW 41 59 22 32 1000.6 1000.3 0.0
29/03:31pm 16.6 9.7 13.9 84 1.5 NNW 43 56 23 30 1000.8 1000.5 0.0
29/03:30pm 16.4 9.4 13.7 84 1.5 NNW 43 56 23 30 1000.8 1000.5 0.0
29/03:20pm 15.7 7.9 13.0 84 1.5 NNW 46 69 25 37 1000.9 1000.6 0.0
29/03:18pm 15.8 7.8 12.4 80 1.9 NNW 46 69 25 37 1000.9 1000.6 0.0
29/03:00pm 17.7 9.9 11.9 69 3.2 NNW 44 56 24 30 1000.9 1000.6 0.0
29/02:30pm 18.8 11.3 12.1 65 3.7 NNW 43 56 23 30 1001.3 1001.0 0.0
29/02:19pm 18.6 10.8 11.7 64 3.8 NNW 44 63 24 34 1001.3 1001.0 0.0
29/02:00pm 18.9 11.3 11.7 63 4.0 NNW 43 56 23 30 1001.6 1001.3 0.0
29/01:30pm 19.8 12.3 12.6 63 4.1 NNW 44 57 24 31 1002.2 1001.9 0.0
29/01:00pm 18.3 10.9 12.3 68 3.4 NNW 43 59 23 32 1002.8 1002.5 0.0
29/12:45pm 17.2 10.3 11.7 70 3.0 NNW 39 57 21 31 1003.0 1002.7 0.0
29/12:30pm 17.4 11.4 12.1 71 2.9 NNW 35 48 19 26 1003.2 1002.9 0.0
29/12:00pm 16.1 11.9 12.5 79 2.0 NNW 26 39 14 21 1003.6 1003.3 0.0
29/11:30am 16.2 11.6 12.4 78 2.1 NNW 28 37 15 20 1004.0 1003.7 0.0
29/11:00am 16.5 10.4 11.9 74 2.5 NNW 35 46 19 25 1004.4 1004.1 0.0
29/10:48am 16.6 11.1 12.0 74 2.5 NNW 32 52 17 28 1004.6 1004.3 0.0
29/10:30am 16.4 10.8 12.0 75 2.4 NNW 33 44 18 24 1004.8 1004.6 0.0
29/10:00am 16.5 11.2 12.5 77 2.2 NNW 32 46 17 25 1005.1 1004.9 0.0
29/09:30am 15.9 11.2 12.1 78 2.1 N 28 39 15 21 1005.4 1005.2 0.0
29/09:06am 15.8 10.3 11.8 77 2.2 N 32 50 17 27 1005.7 1005.4 0.0
29/09:00am 15.8 10.3 12.0 78 2.1 N 32 39 17 21 1005.7 1005.4 0.4
29/08:30am 15.5 10.5 12.1 80 1.9 N 30 46 16 25 1005.5 1005.3 0.4
29/08:26am 15.5 10.8 12.1 80 1.9 N 28 46 15 25 1005.5 1005.3 0.4
29/08:00am 15.3 11.0 12.2 82 1.7 NNW 26 33 14 18 1005.8 1005.5 0.4
29/07:30am 14.9 11.0 12.2 84 1.5 NNW 24 32 13 17 1005.8 1005.5 0.4
29/07:00am 15.1 9.6 11.9 81 1.8 N 32 41 17 22 1005.8 1005.5 0.4
29/06:30am 14.7 9.1 11.5 81 1.7 NNW 32 43 17 23 1006.0 1005.7 0.4
29/06:00am 14.5 9.3 11.5 82 1.6 NNW 30 39 16 21 1006.1 1005.8 0.4
29/05:30am 13.8 10.5 11.7 87 1.1 NNW 20 33 11 18 1006.1 1005.8 0.4
29/05:00am 13.9 9.9 11.9 88 1.1 NW 24 30 13 16 1006.6 1006.3 0.4
29/04:59am 13.9 9.9 11.9 88 1.1 NW 24 30 13 16 1006.6 1006.3 0.4
29/04:49am 13.9 9.9 11.8 87 1.1 NNW 24 32 13 17 1006.6 1006.3 0.2
29/04:30am 14.4 10.6 11.2 81 1.7 NNW 22 28 12 15 1006.6 1006.3 0.0
29/04:00am 14.1 10.6 10.9 81 1.7 NNW 20 24 11 13 1006.9 1006.6 0.0
29/03:30am 13.4 9.9 10.9 85 1.3 N 20 24 11 13 1007.3 1007.0 0.0
29/03:00am 13.7 10.5 11.2 85 1.3 NNW 19 22 10 12 1007.7 1007.4 0.0
29/02:30am 14.1 10.3 11.3 83 1.5 N 22 28 12 15 1007.9 1007.6 0.0
29/02:00am 14.1 10.7 10.7 80 1.8 N 19 26 10 14 1008.2 1007.9 0.0
29/01:30am 14.1 10.7 10.7 80 1.8 NNW 19 24 10 13 1008.5 1008.2 0.0
29/01:00am 14.5 10.8 10.1 75 2.3 N 20 26 11 14 1008.6 1008.3 0.0
29/12:30am 14.8 11.1 10.0 73 2.5 NNW 20 28 11 15 1008.8 1008.5 0.0
29/12:00am 14.5 10.0 9.9 74 2.4 NNW 24 28 13 15 1008.8 1008.5 0.0
 
Date/Time
EDT
Temp
°C
App
Temp
°C
Dew
Point
°C
Rel
Hum
%
Delta-T
°C
Wind Press
QNH
hPa
Press
MSL
hPa
Rain since
9am
mm
Dir  Spd
km/h
Gust
km/h
Spd
kts
Gust
kts
28/11:30pm 14.6 10.6 9.0 69 2.9 NNW 20 28 11 15 1009.2 1008.9 0.0
28/11:00pm 14.8 10.0 9.0 68 3.0 NNW 24 33 13 18 1009.4 1009.1 0.0
28/10:30pm 15.0 10.3 9.4 69 2.9 N 24 32 13 17 1009.5 1009.2 0.0
28/10:00pm 14.4 10.1 9.2 71 2.7 NNW 22 32 12 17 1009.5 1009.2 0.0
28/09:30pm 14.5 9.9 9.5 72 2.6 NNW 24 30 13 16 1009.5 1009.2 0.0
28/09:00pm 14.3 11.1 9.9 75 2.3 NNW 17 22 9 12 1009.4 1009.1 0.0
28/08:30pm 14.2 10.5 10.2 77 2.1 N 20 26 11 14 1009.1 1008.8 0.0
28/08:00pm 14.4 10.4 10.6 78 2.0 NNW 22 28 12 15 1008.8 1008.5 0.0
28/07:30pm 15.2 10.9 10.6 74 2.4 NNW 24 33 13 18 1008.4 1008.1 0.0
28/07:00pm 15.6 10.4 10.4 71 2.8 N 28 35 15 19 1008.3 1008.0 0.0
28/06:30pm 16.9 11.0 10.5 66 3.4 N 32 43 17 23 1008.1 1007.8 0.0
28/06:00pm 17.8 12.3 10.7 63 3.9 N 30 41 16 22 1008.0 1007.7 0.0
28/05:30pm 18.2 11.8 10.6 61 4.1 N 35 46 19 25 1007.9 1007.6 0.0
28/05:00pm 17.7 11.7 10.8 64 3.7 N 33 43 18 23 1007.8 1007.5 0.0
28/04:30pm 18.9 12.1 10.7 59 4.5 NNW 37 46 20 25 1007.6 1007.3 0.0
28/04:00pm 18.3 12.8 10.4 60 4.3 NNW 30 43 16 23 1007.8 1007.5 0.0
28/03:30pm 18.7 12.5 10.0 57 4.7 NNW 33 43 18 23 1007.8 1007.5 0.0
28/03:00pm 19.1 12.9 10.1 56 4.9 N 33 44 18 24 1008.0 1007.7 0.0
28/02:30pm 19.4 13.2 10.1 55 5.0 N 33 44 18 24 1008.2 1007.9 0.0
28/02:00pm 19.9 14.4 10.6 55 5.1 NNW 30 39 16 21 1008.6 1008.3 0.0
28/01:30pm 19.6 13.7 10.3 55 5.0 NNW 32 43 17 23 1009.0 1008.7 0.0
28/01:00pm 17.7 11.9 9.3 58 4.4 NNW 30 41 16 22 1009.4 1009.1 0.0
28/12:30pm 17.7 12.0 9.8 60 4.2 NNW 30 39 16 21 1009.7 1009.4 0.0
28/12:00pm 17.4 11.2 10.1 62 3.9 NNW 33 46 18 25 1009.9 1009.7 0.0
28/11:30am 16.6 11.3 9.8 64 3.6 NNW 28 35 15 19 1010.0 1009.8 0.0
28/11:00am 16.1 9.3 9.1 63 3.6 NNW 35 44 19 24 1010.2 1010.0 0.0
28/10:30am 16.3 10.5 9.5 64 3.6 NNW 30 43 16 23 1010.1 1009.9 0.0
28/10:00am 16.3 10.2 9.7 65 3.5 NNW 32 39 17 21 1010.1 1009.9 0.0
28/09:30am 15.4 10.0 9.5 68 3.1 NNW 28 39 15 21 1009.8 1009.5 0.0
28/09:00am 14.3 9.8 10.1 76 2.2 N 24 32 13 17 1009.6 1009.3 5.0
28/08:30am 13.6 9.3 10.6 82 1.6 N 24 28 13 15 1009.4 1009.1 5.0
28/08:00am 12.7 7.8 9.9 83 1.4 N 26 32 14 17 1009.0 1008.7 5.0
28/07:30am 12.5 8.2 9.3 81 1.6 N 22 32 12 17 1009.0 1008.7 5.0
28/07:00am 12.3 8.4 9.5 83 1.4 NNW 20 26 11 14 1008.8 1008.5 5.0
28/06:30am 10.8 7.3 8.7 87 1.0 NNW 17 20 9 11 1008.7 1008.4 5.0
28/06:00am 11.7 7.4 9.3 85 1.2 NNW 22 30 12 16 1008.5 1008.2 5.0
28/05:30am 11.9 7.3 9.6 86 1.2 NNW 24 30 13 16 1008.2 1007.9 5.0
28/05:00am 11.6 7.2 9.0 84 1.3 NNW 22 28 12 15 1007.9 1007.6 5.0
28/04:30am 10.7 7.8 8.3 85 1.2 NNW 13 19 7 10 1007.8 1007.5 5.0
28/04:00am 11.0 7.0 8.2 83 1.4 N 19 22 10 12 1007.7 1007.4 5.0
28/03:30am 11.0 6.0 7.9 81 1.5 NNW 24 30 13 16 1007.8 1007.5 5.0
28/03:00am 11.2 6.2 7.9 80 1.6 N 24 33 13 18 1007.7 1007.4 5.0
28/02:30am 10.9 6.6 7.8 81 1.5 N 20 26 11 14 1007.8 1007.5 5.0
28/02:00am 10.7 7.0 7.8 82 1.4 NNW 17 20 9 11 1007.9 1007.6 5.0
28/01:30am 10.4 5.7 7.8 84 1.3 NNW 22 24 12 13 1007.7 1007.4 5.0
28/01:00am 10.7 7.2 7.2 79 1.7 N 15 19 8 10 1007.7 1007.4 5.0
28/12:30am 11.1 8.1 7.6 79 1.7 N 13 17 7 9 1007.8 1007.5 5.0
28/12:00am 11.6 7.8 7.5 76 2.0 NNW 17 20 9 11 1007.6 1007.3 5.0
 
Date/Time
EDT
Temp
°C
App
Temp
°C
Dew
Point
°C
Rel
Hum
%
Delta-T
°C
Wind Press
QNH
hPa
Press
MSL
hPa
Rain since
9am
mm
Dir  Spd
km/h
Gust
km/h
Spd
kts
Gust
kts
27/11:30pm 11.9 6.8 7.8 76 2.0 NNW 24 30 13 16 1007.4 1007.1 5.0
27/11:00pm 12.6 8.8 8.9 78 1.9 NW 19 24 10 13 1007.2 1006.9 5.0
27/10:30pm 13.3 9.0 9.5 78 2.0 NNW 22 33 12 18 1007.0 1006.7 5.0
27/10:00pm 13.1 9.5 10.5 84 1.4 NW 20 24 11 13 1006.3 1006.0 5.0
27/09:30pm 13.2 9.9 10.9 86 1.2 N 19 24 10 13 1006.0 1005.7 5.0
27/09:18pm 13.4 10.5 11.1 86 1.2 NNW 17 24 9 13 1006.1 1005.8 5.0
27/09:03pm 14.0 10.7 11.5 85 1.3 NW 20 28 11 15 1006.1 1005.8 5.0
27/09:00pm 14.0 10.9 11.5 85 1.3 NW 19 28 10 15 1006.1 1005.8 5.0
27/08:30pm 13.9 8.9 10.9 82 1.6 NNW 28 35 15 19 1005.3 1005.1 4.8
27/08:00pm 13.3 8.9 10.5 83 1.5 NNW 24 30 13 16 1004.9 1004.7 4.8
27/07:30pm 12.8 9.2 9.8 82 1.5 N 19 24 10 13 1005.0 1004.8 4.8
27/07:00pm 13.0 9.2 9.8 81 1.7 NNW 20 26 11 14 1004.9 1004.7 4.8
27/06:30pm 13.8 8.8 10.8 82 1.6 NNW 28 37 15 20 1004.6 1004.3 4.8
27/06:00pm 14.2 10.3 12.2 88 1.1 NNW 24 33 13 18 1004.3 1004.0 4.8
27/05:30pm 13.5 8.8 11.9 90 0.9 NNW 28 37 15 20 1003.5 1003.2 4.8
27/05:00pm 13.6 8.5 11.8 89 1.0 NNW 30 48 16 26 1002.6 1002.3 4.6
27/04:30pm 14.0 9.2 11.7 86 1.2 NNW 28 39 15 21 1002.8 1002.5 4.2
27/04:03pm 15.5 10.2 12.4 82 1.7 NNW 32 50 17 27 1003.0 1002.7 2.6
27/04:00pm 15.4 9.4 12.0 80 1.9 NNW 35 50 19 27 1002.9 1002.6 2.4
27/03:34pm 16.6 11.6 13.3 81 1.9 NNW 32 50 17 27 1002.8 1002.5 1.6
27/03:30pm 16.9 11.3 13.2 79 2.1 NNW 35 50 19 27 1002.8 1002.5 1.4
27/03:21pm 17.3 11.0 13.4 78 2.2 NW 39 59 21 32 1002.0 1001.7 1.4
27/03:14pm 17.7 8.6 13.8 78 2.2 NW 54 85 29 46 1001.6 1001.3 1.4
27/03:06pm 18.2 9.0 14.5 79 2.2 NNW 56 85 30 46 1001.5 1001.2 1.4
27/03:05pm 18.2 9.4 14.5 79 2.2 NNW 54 85 29 46 1001.4 1001.1 1.4
27/03:04pm 18.1 10.1 14.6 80 2.0 NNW 50 85 27 46 1001.4 1001.1 1.4
27/03:00pm 18.7 12.4 16.1 85 1.6 NNW 44 63 24 34 1001.1 1000.8 1.2
27/02:45pm 20.2 15.2 16.2 78 2.4 NNW 37 56 20 30 1000.2 999.9 0.6
27/02:30pm 20.4 16.0 16.6 79 2.3 NNW 35 43 19 23 999.9 999.6 0.6
27/02:00pm 20.8 15.9 16.4 76 2.7 NNW 37 54 20 29 1000.5 1000.2 0.6
27/01:30pm 21.8 18.6 17.2 75 2.8 NW 30 44 16 24 1000.3 1000.0 0.6
27/01:00pm 21.3 19.0 17.7 80 2.2 N 26 37 14 20 1000.1 999.8 0.6
27/12:30pm 19.8 18.3 17.8 88 1.2 N 22 32 12 17 1001.6 1001.3 0.6
27/12:27pm 20.0 18.2 17.8 87 1.4 N 24 33 13 18 1001.9 1001.6 0.6
27/12:00pm 20.6 19.1 17.6 83 1.9 NW 22 32 12 17 1003.9 1003.6 0.0
27/11:53am 20.1 16.9 17.3 84 1.7 WNW 30 48 16 26 1004.1 1003.8 0.0
27/11:30am 23.3 19.6 15.1 60 4.9 NW 28 35 15 19 1003.2 1002.9 0.0
27/11:00am 22.8 21.0 16.1 66 4.1 NW 20 28 11 15 1002.8 1002.5 0.0
27/10:30am 21.7 20.3 15.5 68 3.7 NNW 17 22 9 12 1003.2 1002.9 0.0
27/10:00am 20.9 19.6 15.7 72 3.1 NW 17 20 9 11 1004.2 1003.9 0.0

Other Formats:

Comma delimited format used in spreadsheet applications
http://www.bom.gov.au/fwo/IDT60801/IDT60801.95966.axf

JavaScript Object Notation format (JSON) in row-major order
http://www.bom.gov.au/fwo/IDT60801/IDT60801.95966.json